T/t Zenji — ZCXH2 — position and weather

sailwx.info

Track history (hours):
 
Tides and Currents Weather Stations Pressure Air Temp Water Temp Dewpoint Dewpoint Depression Visibility Wind Speed Wind Dir Waves Ship Positions

T/t Zenji

Last reported at 2015-Mar-11 12:33 UTC. Time now 2015-Mar-27 22:16 UTC.
Position N 18°16' W 064°43'.
Warning: this ship's position is 16 days out of date.

Length 13 m.

Type: Pleasure craft. MMSI: 235007190.

Date/timePositionNaut miles runAvg speedWind from/ knotsBaromVisibWave heightAir tempDewpointWater temp
2015-Mar-11 12:33N 18°16' W 064°43'9 8.7
2015-Mar-11 11:32N 18°17' W 064°52'  
2015-Mar-07 13:09N 18°18' W 064°53'4 7.4
2015-Mar-07 12:33N 18°19' W 064°49'8 8.4
2015-Mar-07 11:33N 18°26' W 064°45'0 0.1
2015-Mar-07 10:33N 18°26' W 064°45'0 0.0
2015-Mar-07 09:33N 18°26' W 064°45'0 0.0
2015-Mar-07 08:33N 18°26' W 064°45'0 0.0
2015-Mar-07 07:33N 18°26' W 064°45'0 0.0
2015-Mar-07 06:33N 18°26' W 064°45'0 0.0
2015-Mar-07 05:33N 18°26' W 064°45'0 0.0
2015-Mar-07 04:33N 18°26' W 064°45'0 0.0
2015-Mar-07 03:33N 18°26' W 064°45'0 0.0
2015-Mar-07 02:33N 18°26' W 064°45'0 0.0
2015-Mar-07 01:33N 18°26' W 064°45'0 0.0
2015-Mar-07 00:33N 18°26' W 064°45'0 0.0
2015-Mar-06 23:33N 18°26' W 064°45'0 0.0
2015-Mar-06 22:34N 18°26' W 064°45'6 5.9
2015-Mar-06 21:30N 18°30' W 064°40'6 6.2
2015-Mar-06 20:33N 18°32' W 064°34'8 6.3
2015-Mar-06 19:14N 18°27' W 064°27'0 0.0
2015-Mar-06 18:30N 18°27' W 064°27'0 0.0
2015-Mar-06 17:33N 18°27' W 064°27'0 0.0
2015-Mar-06 16:33N 18°27' W 064°27'4 3.5
2015-Mar-06 15:22N 18°31' W 064°25'2 0.0
2015-Mar-04 18:19N 18°31' W 064°23'12 6.6
2015-Mar-04 16:33N 18°23' W 064°32'4 3.1
2015-Mar-04 15:17N 18°21' W 064°35'1 0.3
2015-Mar-04 13:25N 18°21' W 064°35'0 0.0
2015-Mar-04 10:33N 18°21' W 064°35'0 0.0
2015-Mar-04 09:33N 18°21' W 064°35'0 0.0
2015-Mar-04 07:25N 18°21' W 064°35'0 0.0
2015-Mar-04 06:25N 18°21' W 064°35'0 0.0
2015-Mar-04 05:33N 18°21' W 064°35'0 0.0
2015-Mar-04 04:32N 18°21' W 064°35'0 0.0
2015-Mar-04 03:31N 18°21' W 064°35'5 0.5
2015-Mar-03 16:11N 18°17' W 064°38'8 0.3
2015-Mar-02 14:33N 18°23' W 064°43'0 0.5
2015-Mar-02 13:33N 18°23' W 064°43'0 0.0
2015-Mar-02 12:33N 18°23' W 064°43'2 2.2
2015-Mar-02 11:34N 18°22' W 064°45'0 0.0
2015-Mar-02 10:33N 18°22' W 064°45'0 0.0
2015-Mar-02 09:33N 18°22' W 064°45'0 0.0
2015-Mar-02 08:33N 18°22' W 064°45'0 0.0
2015-Mar-02 07:33N 18°22' W 064°45'0 0.0
2015-Mar-02 06:33N 18°22' W 064°45'0 0.0
2015-Mar-02 05:33N 18°22' W 064°45'0 0.0
2015-Mar-02 04:33N 18°22' W 064°45'0 0.0
2015-Mar-02 03:33N 18°22' W 064°45'0 0.0
2015-Mar-02 02:33N 18°22' W 064°45'0 0.0
2015-Mar-02 01:33N 18°22' W 064°45'0 0.0
2015-Mar-02 00:33N 18°22' W 064°45'0 0.0
2015-Mar-01 23:33N 18°22' W 064°45'0 0.0
2015-Mar-01 22:33N 18°22' W 064°45'4 4.1
2015-Mar-01 21:33N 18°20' W 064°49'  
Track history (hours):
 
Tides and Currents Weather Stations Pressure Air Temp Water Temp Dewpoint Dewpoint Depression Visibility Wind Speed Wind Dir Waves Ship Positions

T/t Zenji

Last reported at 2015-Mar-11 12:33 UTC. Time now 2015-Mar-27 22:16 UTC.
Position N 18°16' W 064°43'.
Warning: this ship's position is 16 days out of date.

Length 13 m.

Type: Pleasure craft. MMSI: 235007190.

Date/timePositionNaut miles runAvg speedWind from/ knotsBaromVisibWave heightAir tempDewpointWater temp
2015-Mar-11 12:33N 18°16' W 064°43'9 8.7
2015-Mar-11 11:32N 18°17' W 064°52'  
2015-Mar-07 13:09N 18°18' W 064°53'4 7.4
2015-Mar-07 12:33N 18°19' W 064°49'8 8.4
2015-Mar-07 11:33N 18°26' W 064°45'0 0.1
2015-Mar-07 10:33N 18°26' W 064°45'0 0.0
2015-Mar-07 09:33N 18°26' W 064°45'0 0.0
2015-Mar-07 08:33N 18°26' W 064°45'0 0.0
2015-Mar-07 07:33N 18°26' W 064°45'0 0.0
2015-Mar-07 06:33N 18°26' W 064°45'0 0.0
2015-Mar-07 05:33N 18°26' W 064°45'0 0.0
2015-Mar-07 04:33N 18°26' W 064°45'0 0.0
2015-Mar-07 03:33N 18°26' W 064°45'0 0.0
2015-Mar-07 02:33N 18°26' W 064°45'0 0.0
2015-Mar-07 01:33N 18°26' W 064°45'0 0.0
2015-Mar-07 00:33N 18°26' W 064°45'0 0.0
2015-Mar-06 23:33N 18°26' W 064°45'0 0.0
2015-Mar-06 22:34N 18°26' W 064°45'6 5.9
2015-Mar-06 21:30N 18°30' W 064°40'6 6.2
2015-Mar-06 20:33N 18°32' W 064°34'8 6.3
2015-Mar-06 19:14N 18°27' W 064°27'0 0.0
2015-Mar-06 18:30N 18°27' W 064°27'0 0.0
2015-Mar-06 17:33N 18°27' W 064°27'0 0.0
2015-Mar-06 16:33N 18°27' W 064°27'4 3.5
2015-Mar-06 15:22N 18°31' W 064°25'2 0.0
2015-Mar-04 18:19N 18°31' W 064°23'12 6.6
2015-Mar-04 16:33N 18°23' W 064°32'4 3.1
2015-Mar-04 15:17N 18°21' W 064°35'1 0.3
2015-Mar-04 13:25N 18°21' W 064°35'0 0.0
2015-Mar-04 10:33N 18°21' W 064°35'0 0.0
2015-Mar-04 09:33N 18°21' W 064°35'0 0.0
2015-Mar-04 07:25N 18°21' W 064°35'0 0.0
2015-Mar-04 06:25N 18°21' W 064°35'0 0.0
2015-Mar-04 05:33N 18°21' W 064°35'0 0.0
2015-Mar-04 04:32N 18°21' W 064°35'0 0.0
2015-Mar-04 03:31N 18°21' W 064°35'5 0.5
2015-Mar-03 16:11N 18°17' W 064°38'8 0.3
2015-Mar-02 14:33N 18°23' W 064°43'0 0.5
2015-Mar-02 13:33N 18°23' W 064°43'0 0.0
2015-Mar-02 12:33N 18°23' W 064°43'2 2.2
2015-Mar-02 11:34N 18°22' W 064°45'0 0.0
2015-Mar-02 10:33N 18°22' W 064°45'0 0.0
2015-Mar-02 09:33N 18°22' W 064°45'0 0.0
2015-Mar-02 08:33N 18°22' W 064°45'0 0.0
2015-Mar-02 07:33N 18°22' W 064°45'0 0.0
2015-Mar-02 06:33N 18°22' W 064°45'0 0.0
2015-Mar-02 05:33N 18°22' W 064°45'0 0.0
2015-Mar-02 04:33N 18°22' W 064°45'0 0.0
2015-Mar-02 03:33N 18°22' W 064°45'0 0.0
2015-Mar-02 02:33N 18°22' W 064°45'0 0.0
2015-Mar-02 01:33N 18°22' W 064°45'0 0.0
2015-Mar-02 00:33N 18°22' W 064°45'0 0.0
2015-Mar-01 23:33N 18°22' W 064°45'0 0.0
2015-Mar-01 22:33N 18°22' W 064°45'4 4.1
2015-Mar-01 21:33N 18°20' W 064°49'  

Dump ship's entire track history